createdAt,value
2019-05-31T00:01:44.193Z,17.20
2019-05-31T00:04:12.985Z,17.20
2019-05-31T00:06:41.413Z,17.20
2019-05-31T00:09:09.849Z,17.20
2019-05-31T00:11:38.841Z,17.10
2019-05-31T00:14:19.929Z,17.10
2019-05-31T00:16:37.445Z,17.10
2019-05-31T00:19:05.880Z,17.10
2019-05-31T00:21:34.585Z,17.00
2019-05-31T00:24:03.018Z,17.00
2019-05-31T00:26:31.457Z,17.00
2019-05-31T00:29:00.945Z,16.90
2019-05-31T00:31:29.509Z,16.90
2019-05-31T00:33:57.954Z,16.90
2019-05-31T00:36:26.397Z,16.90
2019-05-31T00:38:55.037Z,16.90
2019-05-31T00:41:23.537Z,16.90
2019-05-31T00:43:51.977Z,16.90
2019-05-31T00:46:20.405Z,16.90
2019-05-31T00:48:48.857Z,16.90
2019-05-31T00:51:17.290Z,16.90
2019-05-31T00:53:45.723Z,16.90
2019-05-31T00:56:14.237Z,16.80
2019-05-31T00:58:42.653Z,16.80
2019-05-31T01:01:11.085Z,16.80
2019-05-31T01:03:39.516Z,16.80
2019-05-31T01:06:08.258Z,16.80
2019-05-31T01:08:36.690Z,16.70
2019-05-31T01:11:05.739Z,16.70
2019-05-31T01:13:34.341Z,16.80
2019-05-31T01:16:04.033Z,16.80
2019-05-31T01:18:32.720Z,16.90
2019-05-31T01:21:02.364Z,16.80
2019-05-31T01:23:31.130Z,16.80
2019-05-31T01:25:59.569Z,16.80
2019-05-31T01:28:27.992Z,16.90
2019-05-31T01:30:56.425Z,16.80
2019-05-31T01:33:24.848Z,16.80
2019-05-31T01:35:53.296Z,16.70
2019-05-31T01:38:21.718Z,16.70
2019-05-31T01:40:50.565Z,16.70
2019-05-31T01:43:19.074Z,16.60
2019-05-31T01:45:47.837Z,16.60
2019-05-31T01:48:16.264Z,16.60
2019-05-31T01:50:44.692Z,16.60
2019-05-31T01:53:13.130Z,16.60
2019-05-31T01:55:41.649Z,16.60
2019-05-31T01:58:10.715Z,16.60
2019-05-31T02:00:39.286Z,16.50
2019-05-31T02:03:08.092Z,16.60
2019-05-31T02:05:36.629Z,16.50
2019-05-31T02:08:05.069Z,16.50
2019-05-31T02:10:33.510Z,16.40
2019-05-31T02:13:01.970Z,16.40
2019-05-31T02:15:32.534Z,16.40
2019-05-31T02:18:00.614Z,16.40
2019-05-31T02:20:29.064Z,16.40
2019-05-31T02:22:57.493Z,16.40
2019-05-31T02:25:25.925Z,16.40
2019-05-31T02:27:54.370Z,16.40
2019-05-31T02:30:22.800Z,16.30
2019-05-31T02:32:51.238Z,16.40
2019-05-31T02:35:19.661Z,16.30
2019-05-31T02:37:48.109Z,16.30
2019-05-31T02:40:18.788Z,16.40
2019-05-31T02:42:46.893Z,16.30
2019-05-31T02:45:18.051Z,16.30
2019-05-31T02:47:45.530Z,16.20
2019-05-31T02:50:15.656Z,16.20
2019-05-31T02:52:44.585Z,16.30
2019-05-31T02:55:14.625Z,16.30
2019-05-31T02:57:45.670Z,16.30
2019-05-31T03:00:19.091Z,16.30
2019-05-31T03:02:46.753Z,16.30
2019-05-31T03:05:16.990Z,16.20
2019-05-31T03:07:45.518Z,16.20
2019-05-31T03:10:17.275Z,16.20
2019-05-31T03:12:45.878Z,16.20
2019-05-31T03:15:18.049Z,16.20
2019-05-31T03:17:46.417Z,16.30
2019-05-31T03:20:16.042Z,16.20
2019-05-31T03:22:45.413Z,16.20
2019-05-31T03:25:14.425Z,16.30
2019-05-31T03:27:43.106Z,16.20
2019-05-31T03:30:14.953Z,16.20
2019-05-31T03:32:42.085Z,16.20
2019-05-31T03:35:10.710Z,16.20
2019-05-31T03:37:39.163Z,16.20
2019-05-31T03:40:07.925Z,16.20
2019-05-31T03:42:36.383Z,16.20
2019-05-31T03:45:07.684Z,16.20
2019-05-31T03:47:36.170Z,16.20
2019-05-31T03:50:06.165Z,16.20
2019-05-31T03:52:34.655Z,16.30
2019-05-31T03:55:03.608Z,16.30
2019-05-31T03:57:32.434Z,16.30
2019-05-31T04:00:00.870Z,16.30
2019-05-31T04:02:29.309Z,16.30
2019-05-31T04:04:57.741Z,16.30
2019-05-31T04:07:26.958Z,16.30
2019-05-31T04:09:55.576Z,16.40
2019-05-31T04:12:24.379Z,16.30
2019-05-31T04:14:53.330Z,16.40
2019-05-31T04:17:23.551Z,16.40
2019-05-31T04:19:51.924Z,16.50
2019-05-31T04:22:21.899Z,16.50
2019-05-31T04:24:50.526Z,16.60
2019-05-31T04:27:20.389Z,16.50
2019-05-31T04:29:49.109Z,16.60
2019-05-31T04:32:18.304Z,16.60
2019-05-31T04:34:47.768Z,16.50
2019-05-31T04:37:18.021Z,16.60
2019-05-31T04:39:46.366Z,16.70
2019-05-31T04:42:16.354Z,16.70
2019-05-31T04:44:44.958Z,16.70
2019-05-31T04:47:13.395Z,16.80
2019-05-31T04:49:41.835Z,16.80
2019-05-31T04:52:10.248Z,16.80
2019-05-31T04:54:38.701Z,16.80
2019-05-31T04:57:07.135Z,16.80
2019-05-31T04:59:35.666Z,16.70
2019-05-31T05:02:04.189Z,16.70
2019-05-31T05:04:32.976Z,16.80
2019-05-31T05:07:01.493Z,16.80
2019-05-31T05:09:32.559Z,16.70
2019-05-31T05:12:00.446Z,16.70
2019-05-31T05:14:29.229Z,16.70
2019-05-31T05:16:57.917Z,16.80
2019-05-31T05:19:27.036Z,16.70
2019-05-31T05:21:55.773Z,16.80
2019-05-31T05:24:25.112Z,16.80
2019-05-31T05:26:53.724Z,16.80
2019-05-31T05:29:23.203Z,16.90
2019-05-31T05:31:51.996Z,17.00
2019-05-31T05:34:21.864Z,17.00
2019-05-31T05:36:50.565Z,17.20
2019-05-31T05:39:19.010Z,17.20
2019-05-31T05:41:47.440Z,17.20
2019-05-31T05:44:15.868Z,17.30
2019-05-31T05:46:44.374Z,17.30
2019-05-31T05:49:12.797Z,17.30
2019-05-31T05:51:41.232Z,17.50
2019-05-31T05:54:09.662Z,17.50
2019-05-31T05:56:38.417Z,17.50
2019-05-31T05:59:06.846Z,17.50
2019-05-31T06:01:35.284Z,17.60
2019-05-31T06:04:04.481Z,17.80
2019-05-31T06:06:32.920Z,17.80
2019-05-31T06:09:01.370Z,17.90
2019-05-31T06:11:31.772Z,18.00
2019-05-31T06:13:59.962Z,18.10
2019-05-31T06:16:44.140Z,18.00
2019-05-31T06:18:58.607Z,18.00
2019-05-31T06:21:28.204Z,18.00
2019-05-31T06:23:56.791Z,18.00
2019-05-31T06:26:25.609Z,18.10
2019-05-31T06:28:55.353Z,18.00
2019-05-31T06:31:24.767Z,18.00
2019-05-31T06:33:53.305Z,18.00
2019-05-31T06:36:21.753Z,18.00
2019-05-31T06:38:50.188Z,18.20
2019-05-31T06:41:18.948Z,18.30
2019-05-31T06:43:47.377Z,18.50
2019-05-31T06:46:15.825Z,18.50
2019-05-31T06:48:44.261Z,18.40
2019-05-31T06:51:12.712Z,18.40
2019-05-31T06:53:41.136Z,18.40
2019-05-31T06:56:09.574Z,18.60
2019-05-31T06:58:38.008Z,18.70
2019-05-31T07:01:06.462Z,18.70
2019-05-31T07:03:35.008Z,18.80
2019-05-31T07:06:04.646Z,18.70
2019-05-31T07:08:33.467Z,18.90
2019-05-31T07:11:01.915Z,19.00
2019-05-31T07:13:31.597Z,18.90
2019-05-31T07:16:00.272Z,18.80
2019-05-31T07:18:37.411Z,18.70
2019-05-31T07:20:58.901Z,18.70
2019-05-31T07:23:32.040Z,18.70
2019-05-31T07:25:57.505Z,18.80
2019-05-31T07:28:25.943Z,19.00
2019-05-31T07:30:54.368Z,19.10
2019-05-31T07:33:22.804Z,19.10
2019-05-31T07:35:51.232Z,19.10
2019-05-31T07:38:19.688Z,19.20
2019-05-31T07:40:48.176Z,19.20
2019-05-31T07:43:16.623Z,19.30
2019-05-31T07:45:45.044Z,19.40
2019-05-31T07:48:13.494Z,19.50
2019-05-31T07:50:42.675Z,19.50
2019-05-31T07:53:11.241Z,19.50
2019-05-31T07:55:40.910Z,19.60
2019-05-31T07:58:09.670Z,19.80
2019-05-31T08:00:38.322Z,20.00
2019-05-31T08:03:06.772Z,20.10
2019-05-31T08:05:35.545Z,20.10
2019-05-31T08:08:04.106Z,20.00
2019-05-31T08:10:33.651Z,20.00
2019-05-31T08:13:02.257Z,20.00
2019-05-31T08:15:31.579Z,20.00
2019-05-31T08:18:00.308Z,20.30
2019-05-31T08:20:29.606Z,20.40
2019-05-31T08:22:58.148Z,20.50
2019-05-31T08:25:27.908Z,20.60
2019-05-31T08:27:56.517Z,20.70
2019-05-31T08:30:25.954Z,20.40
2019-05-31T08:32:54.909Z,20.30
2019-05-31T08:35:23.412Z,20.40
2019-05-31T08:37:52.182Z,20.60
2019-05-31T08:40:21.473Z,20.70
2019-05-31T08:42:50.258Z,20.70
2019-05-31T08:45:19.755Z,20.70
2019-05-31T08:47:48.417Z,20.80
2019-05-31T08:50:17.215Z,20.70
2019-05-31T08:52:50.297Z,20.70
2019-05-31T08:55:18.893Z,20.80
2019-05-31T08:57:47.319Z,21.00
2019-05-31T09:00:17.910Z,21.10
2019-05-31T09:02:46.337Z,21.20
2019-05-31T09:05:14.932Z,21.40
2019-05-31T09:07:43.355Z,21.60
2019-05-31T09:10:12.127Z,21.50
2019-05-31T09:12:40.550Z,21.30
2019-05-31T09:15:10.027Z,21.30
2019-05-31T09:17:40.691Z,21.50
2019-05-31T09:20:09.736Z,21.70
2019-05-31T09:22:39.100Z,21.70
2019-05-31T09:25:10.603Z,21.80
2019-05-31T09:27:52.605Z,21.90
2019-05-31T09:30:20.990Z,22.00
2019-05-31T09:32:43.186Z,22.10
2019-05-31T09:35:14.249Z,22.20
2019-05-31T09:37:42.688Z,22.40
2019-05-31T09:40:11.939Z,22.50
2019-05-31T09:42:41.454Z,22.30
2019-05-31T09:45:14.372Z,22.40
2019-05-31T09:47:43.079Z,22.40
2019-05-31T09:50:14.622Z,22.40
2019-05-31T09:52:44.597Z,22.40
2019-05-31T09:55:15.718Z,22.40
2019-05-31T09:57:47.548Z,22.60
2019-05-31T10:00:16.897Z,22.60
2019-05-31T10:02:45.668Z,22.30
2019-05-31T10:05:15.262Z,22.20
2019-05-31T10:07:44.157Z,22.20
2019-05-31T10:10:13.236Z,22.30
2019-05-31T10:12:42.818Z,22.50
2019-05-31T10:15:11.920Z,22.70
2019-05-31T10:17:43.387Z,22.80
2019-05-31T10:20:28.663Z,22.90
2019-05-31T10:22:43.805Z,23.00
2019-05-31T10:25:13.209Z,23.20
2019-05-31T10:27:43.286Z,23.10
2019-05-31T10:30:13.893Z,22.80
2019-05-31T10:32:43.949Z,22.90
2019-05-31T10:35:14.693Z,22.70
2019-05-31T10:37:44.386Z,22.60
2019-05-31T10:40:13.553Z,22.40
2019-05-31T10:42:42.379Z,22.50
2019-05-31T10:45:12.103Z,22.40
2019-05-31T10:47:40.550Z,22.40
2019-05-31T10:50:10.626Z,22.50
2019-05-31T10:52:40.281Z,22.80
2019-05-31T10:55:10.841Z,22.80
2019-05-31T10:57:40.556Z,22.40
2019-05-31T11:00:11.852Z,22.20
2019-05-31T11:02:40.641Z,22.20
2019-05-31T11:05:10.057Z,22.20
2019-05-31T11:07:38.890Z,22.30
2019-05-31T11:10:10.201Z,22.30
2019-05-31T11:12:39.134Z,22.40
2019-05-31T11:15:09.873Z,22.70
2019-05-31T11:17:44.774Z,23.00
2019-05-31T11:20:10.235Z,23.10
2019-05-31T11:22:42.182Z,23.20
2019-05-31T11:25:10.837Z,26.10
2019-05-31T11:27:40.176Z,23.30
2019-05-31T11:30:11.294Z,23.50
2019-05-31T11:32:40.521Z,23.40
2019-05-31T11:35:11.130Z,23.40
2019-05-31T11:37:42.510Z,23.40
2019-05-31T11:40:10.400Z,23.40
2019-05-31T11:43:01.073Z,23.30
2019-05-31T11:45:10.415Z,23.10
2019-05-31T11:47:44.132Z,23.10
2019-05-31T11:50:09.782Z,23.00
2019-05-31T11:52:39.252Z,22.90
2019-05-31T11:55:22.557Z,22.80
2019-05-31T11:57:39.487Z,22.60
2019-05-31T12:00:12.138Z,22.40
2019-05-31T12:02:42.341Z,22.20
2019-05-31T12:05:11.325Z,22.00
2019-05-31T12:07:40.231Z,21.70
2019-05-31T12:10:09.339Z,21.70
2019-05-31T12:12:39.030Z,21.60
2019-05-31T12:15:08.617Z,21.70
2019-05-31T12:17:38.098Z,21.80
2019-05-31T12:20:14.798Z,21.80
2019-05-31T12:22:38.415Z,21.90
2019-05-31T12:25:10.375Z,22.10
2019-05-31T12:27:39.072Z,22.30
2019-05-31T12:30:21.123Z,22.30
2019-05-31T12:32:40.191Z,22.40
2019-05-31T12:35:09.141Z,22.50
2019-05-31T12:37:37.630Z,22.70
2019-05-31T12:40:07.913Z,22.80
2019-05-31T12:42:36.320Z,22.70
2019-05-31T12:45:08.892Z,22.50
2019-05-31T12:47:37.521Z,22.50
2019-05-31T12:50:06.832Z,22.60
2019-05-31T12:52:35.429Z,22.50
2019-05-31T12:55:06.421Z,22.40
2019-05-31T12:57:35.157Z,22.40
2019-05-31T13:00:07.030Z,22.40
2019-05-31T13:02:35.455Z,22.60
2019-05-31T13:05:05.522Z,22.60
2019-05-31T13:07:33.952Z,22.70
2019-05-31T13:10:02.397Z,22.90
2019-05-31T13:12:30.826Z,22.90
2019-05-31T13:14:59.250Z,22.90
2019-05-31T13:17:27.692Z,22.90
2019-05-31T13:19:56.199Z,23.30
2019-05-31T13:22:24.617Z,23.40
2019-05-31T13:24:55.108Z,23.40
2019-05-31T13:27:23.231Z,23.10
2019-05-31T13:29:52.816Z,22.90
2019-05-31T13:32:21.474Z,22.90
2019-05-31T13:34:51.486Z,22.90
2019-05-31T13:37:20.054Z,22.90
2019-05-31T13:39:49.579Z,23.10
2019-05-31T13:42:18.197Z,23.30
2019-05-31T13:44:47.653Z,23.40
2019-05-31T13:47:16.959Z,23.50
2019-05-31T13:49:46.312Z,23.70
2019-05-31T13:52:14.902Z,23.80
2019-05-31T13:54:43.328Z,23.60
2019-05-31T13:57:12.098Z,23.40
2019-05-31T13:59:40.525Z,23.30
2019-05-31T14:02:08.970Z,23.00
2019-05-31T14:04:37.459Z,22.80
2019-05-31T14:07:06.065Z,22.70
2019-05-31T14:09:34.485Z,22.60
2019-05-31T14:12:02.914Z,22.50
2019-05-31T14:14:31.341Z,22.30
2019-05-31T14:16:59.771Z,22.20
2019-05-31T14:19:28.273Z,22.20
2019-05-31T14:21:56.724Z,22.20
2019-05-31T14:24:25.148Z,22.30
2019-05-31T14:26:56.793Z,22.40
2019-05-31T14:29:24.055Z,22.50
2019-05-31T14:31:52.482Z,22.50
2019-05-31T14:34:20.914Z,22.60
2019-05-31T14:36:50.129Z,22.70
2019-05-31T14:39:18.757Z,22.80
2019-05-31T14:41:47.195Z,23.00
2019-05-31T14:44:15.693Z,23.10
2019-05-31T14:46:44.144Z,23.10
2019-05-31T14:49:28.095Z,23.00
2019-05-31T14:51:42.732Z,23.00
2019-05-31T14:54:11.171Z,23.20
2019-05-31T14:56:39.938Z,23.30
2019-05-31T14:59:08.814Z,23.60
2019-05-31T15:01:37.237Z,23.80
2019-05-31T15:04:05.686Z,23.80
2019-05-31T15:06:34.177Z,23.30
2019-05-31T15:09:03.555Z,22.90
2019-05-31T15:11:32.523Z,22.50
2019-05-31T15:14:02.195Z,22.50
2019-05-31T15:16:30.861Z,22.50
2019-05-31T15:18:59.305Z,22.30
2019-05-31T15:21:27.729Z,22.10
2019-05-31T15:23:56.581Z,22.10
2019-05-31T15:26:30.925Z,21.90
2019-05-31T15:28:59.381Z,21.90
2019-05-31T15:31:39.906Z,21.90
2019-05-31T15:34:32.895Z,22.00
2019-05-31T15:37:04.206Z,22.10
2019-05-31T15:39:53.791Z,22.30
2019-05-31T15:42:37.412Z,22.10
2019-05-31T15:45:10.436Z,22.10
2019-05-31T15:47:38.953Z,22.00
2019-05-31T15:50:07.918Z,22.00
2019-05-31T15:52:36.706Z,21.80
2019-05-31T15:55:17.360Z,21.50
2019-05-31T15:57:36.553Z,21.40
2019-05-31T16:00:07.021Z,21.40
2019-05-31T16:02:35.530Z,21.30
2019-05-31T16:05:06.460Z,21.50
2019-05-31T16:07:35.021Z,21.90
2019-05-31T16:10:07.119Z,21.80
2019-05-31T16:12:36.111Z,25.40
2019-05-31T16:15:07.389Z,21.90
2019-05-31T16:17:36.802Z,21.80
2019-05-31T16:20:08.630Z,21.80
2019-05-31T16:22:37.065Z,21.60
2019-05-31T16:25:06.342Z,21.40
2019-05-31T16:27:35.004Z,21.50
2019-05-31T16:30:06.679Z,21.50
2019-05-31T16:32:35.470Z,21.50
2019-05-31T16:35:06.464Z,21.40
2019-05-31T16:37:35.089Z,21.10
2019-05-31T16:40:05.373Z,21.00
2019-05-31T16:42:33.809Z,20.90
2019-05-31T16:45:07.646Z,20.90
2019-05-31T16:47:32.420Z,20.70
2019-05-31T16:50:02.815Z,20.60
2019-05-31T16:52:31.355Z,20.50
2019-05-31T16:55:00.330Z,20.30
2019-05-31T16:57:29.028Z,20.30
2019-05-31T16:59:57.460Z,20.30
2019-05-31T17:02:25.890Z,20.30
2019-05-31T17:04:54.321Z,20.30
2019-05-31T17:07:22.745Z,20.20
2019-05-31T17:09:51.429Z,20.00
2019-05-31T17:12:19.861Z,19.80
2019-05-31T17:14:48.291Z,19.80
2019-05-31T17:17:16.708Z,19.80
2019-05-31T17:19:45.194Z,19.80
2019-05-31T17:22:13.651Z,19.90
2019-05-31T17:24:42.080Z,19.90
2019-05-31T17:27:11.167Z,19.90
2019-05-31T17:29:39.723Z,19.90
2019-05-31T17:32:09.280Z,20.00
2019-05-31T17:34:42.685Z,20.10
2019-05-31T17:37:09.416Z,20.20
2019-05-31T17:39:37.967Z,20.40
2019-05-31T17:42:07.638Z,20.40
2019-05-31T17:44:36.213Z,20.50
2019-05-31T17:47:05.837Z,20.50
2019-05-31T17:49:35.213Z,20.60
2019-05-31T17:52:04.593Z,20.60
2019-05-31T17:54:33.218Z,20.60
2019-05-31T17:59:41.729Z,20.90
2019-05-31T18:02:11.186Z,21.20
2019-05-31T18:04:40.126Z,21.30
2019-05-31T18:07:10.010Z,21.30
2019-05-31T18:09:38.657Z,21.10
2019-05-31T18:12:08.699Z,21.00
2019-05-31T18:14:37.300Z,20.80
2019-05-31T18:17:06.446Z,20.70
2019-05-31T18:19:35.034Z,20.70
2019-05-31T18:22:03.541Z,20.60
2019-05-31T18:24:31.966Z,20.40
2019-05-31T18:27:02.024Z,20.20
2019-05-31T18:29:30.768Z,20.10
2019-05-31T18:31:59.269Z,20.00
2019-05-31T18:34:27.738Z,20.00
2019-05-31T18:36:56.169Z,20.00
2019-05-31T18:39:26.814Z,19.90
2019-05-31T18:41:55.129Z,19.90
2019-05-31T18:44:23.897Z,20.10
2019-05-31T18:46:52.354Z,20.10
2019-05-31T18:49:22.234Z,20.10
2019-05-31T18:51:51.285Z,20.20
2019-05-31T18:54:19.776Z,20.10
2019-05-31T18:56:48.230Z,20.00
2019-05-31T18:59:16.774Z,19.90
2019-05-31T19:01:45.265Z,19.80
2019-05-31T19:04:14.884Z,19.70
2019-05-31T19:06:43.525Z,19.80
2019-05-31T19:09:12.964Z,19.80
2019-05-31T19:11:41.675Z,19.70
2019-05-31T19:14:11.318Z,19.50
2019-05-31T19:16:39.935Z,19.30
2019-05-31T19:19:08.362Z,19.10
2019-05-31T19:21:36.784Z,18.90
2019-05-31T19:24:05.217Z,18.80
2019-05-31T19:26:33.676Z,18.60
2019-05-31T19:29:02.365Z,18.50
2019-05-31T19:31:30.860Z,18.40
2019-05-31T19:33:59.301Z,18.40
2019-05-31T19:36:28.093Z,18.30
2019-05-31T19:38:56.525Z,18.30
2019-05-31T19:41:24.952Z,18.30
2019-05-31T19:43:53.389Z,18.30
2019-05-31T19:46:22.861Z,18.30
2019-05-31T19:48:51.413Z,18.20
2019-05-31T19:51:19.938Z,18.10
2019-05-31T19:53:48.412Z,18.10
2019-05-31T19:56:16.985Z,18.10
2019-05-31T19:58:45.546Z,18.00
2019-05-31T20:01:15.445Z,18.00
2019-05-31T20:03:44.202Z,18.00
2019-05-31T20:06:12.647Z,18.00
2019-05-31T20:08:41.081Z,18.00
2019-05-31T20:11:09.505Z,18.00
2019-05-31T20:13:37.939Z,18.00
2019-05-31T20:16:06.519Z,17.90
2019-05-31T20:18:35.089Z,17.80
2019-05-31T20:21:03.519Z,17.80
2019-05-31T20:23:35.758Z,17.80
2019-05-31T20:26:02.164Z,17.70
2019-05-31T20:28:32.597Z,17.60
2019-05-31T20:31:01.029Z,17.60
2019-05-31T20:33:29.624Z,17.50
2019-05-31T20:35:58.189Z,17.50
2019-05-31T20:38:39.572Z,17.50
2019-05-31T20:40:56.778Z,17.40
2019-05-31T20:43:25.245Z,17.40
2019-05-31T20:45:53.681Z,17.30
2019-05-31T20:48:23.129Z,17.30
2019-05-31T20:50:51.717Z,17.30
2019-05-31T20:53:21.931Z,17.20
2019-05-31T20:55:50.322Z,17.20
2019-05-31T20:58:20.594Z,17.20
2019-05-31T21:00:48.953Z,17.20
2019-05-31T21:03:17.392Z,17.10
2019-05-31T21:05:46.144Z,17.10
2019-05-31T21:08:14.573Z,17.10
2019-05-31T21:10:43.289Z,17.10
2019-05-31T21:13:11.980Z,17.10
2019-05-31T21:15:40.774Z,17.00
2019-05-31T21:18:09.205Z,17.00
2019-05-31T21:20:37.646Z,17.00
2019-05-31T21:23:06.072Z,17.00
2019-05-31T21:25:35.562Z,17.00
2019-05-31T21:28:04.061Z,17.00
2019-05-31T21:30:33.675Z,17.00
2019-05-31T21:33:02.304Z,17.00
2019-05-31T21:35:31.758Z,17.00
2019-05-31T21:38:00.416Z,17.00
2019-05-31T21:40:29.105Z,17.00
2019-05-31T21:42:57.608Z,17.00
2019-05-31T21:45:26.056Z,16.90
2019-05-31T21:47:54.505Z,17.00
2019-05-31T21:50:23.281Z,17.00
2019-05-31T21:52:51.733Z,16.90
2019-05-31T21:55:20.175Z,16.90
2019-05-31T21:57:48.593Z,16.80
2019-05-31T22:00:19.713Z,16.80
2019-05-31T22:02:48.161Z,16.80
2019-05-31T22:05:16.951Z,16.80
2019-05-31T22:07:45.385Z,16.90
2019-05-31T22:10:14.320Z,16.90
2019-05-31T22:12:42.757Z,16.90
2019-05-31T22:15:11.329Z,16.90
2019-05-31T22:17:39.780Z,16.90
2019-05-31T22:20:08.353Z,16.80
2019-05-31T22:22:37.134Z,16.80
2019-05-31T22:25:08.522Z,16.90
2019-05-31T22:27:37.245Z,16.80
2019-05-31T22:30:09.394Z,16.90
2019-05-31T22:32:37.822Z,16.90
2019-05-31T22:35:07.325Z,16.90
2019-05-31T22:37:36.102Z,17.00
2019-05-31T22:40:07.174Z,17.20
2019-05-31T22:42:36.474Z,17.20
2019-05-31T22:45:06.166Z,17.20
2019-05-31T22:47:35.059Z,17.20
2019-05-31T22:50:05.554Z,17.20
2019-05-31T22:52:35.445Z,17.10
2019-05-31T22:55:05.715Z,17.10
2019-05-31T22:57:34.201Z,17.10
2019-05-31T23:00:03.002Z,17.00
2019-05-31T23:02:32.188Z,16.90
2019-05-31T23:05:00.819Z,17.00
2019-05-31T23:07:29.253Z,16.90
2019-05-31T23:09:57.677Z,16.90
2019-05-31T23:12:26.157Z,16.80
2019-05-31T23:14:54.584Z,16.90
2019-05-31T23:17:23.017Z,17.00
2019-05-31T23:19:51.449Z,17.10
2019-05-31T23:22:20.200Z,17.10
2019-05-31T23:24:48.629Z,16.90
2019-05-31T23:27:17.332Z,16.90
2019-05-31T23:30:00.158Z,16.90
2019-05-31T23:32:15.909Z,16.90
2019-05-31T23:34:44.517Z,16.80
2019-05-31T23:37:13.030Z,16.70
2019-05-31T23:39:42.007Z,16.60
2019-05-31T23:42:10.670Z,16.60
2019-05-31T23:44:40.571Z,16.50
2019-05-31T23:47:09.229Z,16.50
2019-05-31T23:49:38.861Z,16.50
2019-05-31T23:52:07.470Z,16.60
2019-05-31T23:54:35.913Z,16.70
2019-05-31T23:57:04.356Z,16.70
2019-05-31T23:59:32.781Z,16.90
